createdAt,value
2023-02-13T00:00:44.816Z,6.19
2023-02-13T00:03:12.212Z,6.19
2023-02-13T00:05:39.516Z,6.19
2023-02-13T00:08:06.902Z,6.19
2023-02-13T00:10:34.271Z,6.18
2023-02-13T00:13:01.529Z,6.18
2023-02-13T00:15:28.834Z,6.18
2023-02-13T00:17:56.294Z,6.18
2023-02-13T00:20:23.879Z,6.15
2023-02-13T00:22:51.147Z,6.15
2023-02-13T00:25:18.541Z,6.14
2023-02-13T00:27:45.990Z,6.14
2023-02-13T00:30:13.957Z,6.12
2023-02-13T00:32:41.185Z,6.13
2023-02-13T00:35:08.812Z,6.13
2023-02-13T00:37:36.126Z,6.13
2023-02-13T00:40:04.015Z,6.13
2023-02-13T00:42:31.444Z,6.13
2023-02-13T00:44:58.914Z,6.12
2023-02-13T00:47:26.231Z,6.13
2023-02-13T00:49:53.474Z,6.12
2023-02-13T00:52:20.766Z,6.11
2023-02-13T00:54:48.331Z,6.11
2023-02-13T00:57:15.561Z,6.09
2023-02-13T00:59:43.689Z,6.07
2023-02-13T01:02:10.934Z,6.05
2023-02-13T01:04:40.037Z,6.05
2023-02-13T01:07:07.326Z,6.06
2023-02-13T01:09:35.547Z,6.05
2023-02-13T01:12:02.962Z,6.04
2023-02-13T01:14:30.634Z,6.04
2023-02-13T01:16:57.883Z,6.03
2023-02-13T01:19:25.796Z,6.02
2023-02-13T01:21:53.157Z,6.01
2023-02-13T01:24:20.519Z,5.99
2023-02-13T01:26:47.785Z,5.98
2023-02-13T01:29:15.059Z,5.98
2023-02-13T01:31:42.547Z,5.97
2023-02-13T01:34:09.971Z,5.97
2023-02-13T01:36:37.232Z,5.96
2023-02-13T01:39:04.470Z,5.95
2023-02-13T01:41:31.891Z,5.94
2023-02-13T01:44:01.906Z,5.96
2023-02-13T01:46:47.325Z,5.95
2023-02-13T01:49:25.763Z,5.94
2023-02-13T01:51:55.763Z,5.93
2023-02-13T01:54:31.164Z,5.93
2023-02-13T01:57:07.400Z,5.93
2023-02-13T01:59:41.430Z,5.92
2023-02-13T02:02:08.858Z,5.92
2023-02-13T02:04:39.253Z,5.92
2023-02-13T02:07:17.866Z,5.89
2023-02-13T02:09:48.315Z,5.87
2023-02-13T02:12:33.077Z,5.84
2023-02-13T02:15:03.459Z,5.84
2023-02-13T02:17:32.889Z,5.85
2023-02-13T02:20:50.382Z,5.87
2023-02-13T02:23:17.745Z,5.88
2023-02-13T02:25:51.053Z,5.87
2023-02-13T02:28:55.457Z,5.88
2023-02-13T02:32:00.036Z,5.89
2023-02-13T02:35:05.711Z,5.89
2023-02-13T02:37:57.438Z,5.87
2023-02-13T02:40:26.381Z,5.87
2023-02-13T02:43:25.904Z,5.85
2023-02-13T02:46:36.177Z,5.85
2023-02-13T02:49:51.692Z,5.83
2023-02-13T02:52:23.864Z,5.83
2023-02-13T02:55:06.570Z,5.82
2023-02-13T02:58:06.826Z,5.82
2023-02-13T03:00:56.339Z,5.81
2023-02-13T03:03:44.353Z,5.84
2023-02-13T03:06:17.539Z,5.84
2023-02-13T03:09:10.806Z,5.83
2023-02-13T03:11:57.651Z,5.83
2023-02-13T03:14:28.354Z,5.83
2023-02-13T03:17:36.081Z,5.81
2023-02-13T03:20:26.811Z,5.81
2023-02-13T03:22:59.789Z,5.80
2023-02-13T03:25:35.926Z,5.79
2023-02-13T03:28:29.829Z,5.78
2023-02-13T03:31:33.308Z,5.77
2023-02-13T03:34:05.973Z,5.77
2023-02-13T03:37:10.213Z,5.77
2023-02-13T03:40:05.629Z,5.76
2023-02-13T03:42:45.173Z,5.75
2023-02-13T03:45:39.592Z,5.74
2023-02-13T03:48:30.012Z,5.74
2023-02-13T03:51:00.235Z,5.73
2023-02-13T03:53:31.630Z,5.74
2023-02-13T03:56:18.838Z,5.75
2023-02-13T03:59:13.440Z,5.73
2023-02-13T04:01:44.849Z,5.73
2023-02-13T04:04:39.534Z,5.73
2023-02-13T04:07:32.013Z,5.73
2023-02-13T04:10:04.302Z,5.73
2023-02-13T04:12:53.783Z,5.69
2023-02-13T04:16:12.004Z,5.69
2023-02-13T04:18:39.988Z,5.69
2023-02-13T04:21:08.799Z,5.67
2023-02-13T04:23:37.123Z,5.68
2023-02-13T04:26:09.091Z,5.66
2023-02-13T04:28:36.483Z,5.66
2023-02-13T04:31:03.860Z,5.65
2023-02-13T04:33:31.265Z,5.65
2023-02-13T04:35:58.607Z,5.64
2023-02-13T04:38:25.846Z,5.63
2023-02-13T04:40:53.208Z,5.61
2023-02-13T04:43:20.440Z,5.61
2023-02-13T04:45:51.505Z,5.60
2023-02-13T04:48:18.773Z,5.60
2023-02-13T04:50:46.067Z,5.59
2023-02-13T04:53:13.413Z,5.58
2023-02-13T04:55:41.078Z,5.58
2023-02-13T04:58:08.334Z,5.57
2023-02-13T05:00:35.690Z,5.57
2023-02-13T05:03:11.933Z,5.57
2023-02-13T05:05:41.195Z,5.56
2023-02-13T05:08:09.402Z,5.55
2023-02-13T05:10:37.043Z,5.55
2023-02-13T05:13:04.461Z,5.55
2023-02-13T05:15:31.913Z,5.54
2023-02-13T05:17:59.659Z,5.53
2023-02-13T05:20:26.947Z,5.53
2023-02-13T05:23:13.679Z,5.52
2023-02-13T05:25:42.187Z,5.53
2023-02-13T05:28:29.523Z,5.53
2023-02-13T05:30:57.474Z,5.53
2023-02-13T05:33:25.551Z,5.51
2023-02-13T05:35:52.853Z,5.51
2023-02-13T05:38:20.099Z,5.51
2023-02-13T05:40:47.330Z,5.51
2023-02-13T05:43:14.613Z,5.51
2023-02-13T05:45:41.936Z,5.51
2023-02-13T05:48:09.260Z,5.50
2023-02-13T05:50:36.695Z,5.49
2023-02-13T05:53:04.083Z,5.47
2023-02-13T05:55:33.402Z,5.49
2023-02-13T05:58:00.884Z,5.49
2023-02-13T06:00:28.201Z,5.49
2023-02-13T06:02:55.500Z,5.48
2023-02-13T06:05:22.741Z,5.49
2023-02-13T06:07:50.046Z,5.49
2023-02-13T06:10:17.368Z,5.47
2023-02-13T06:12:44.586Z,5.47
2023-02-13T06:15:11.974Z,5.47
2023-02-13T06:17:39.272Z,5.47
2023-02-13T06:20:07.349Z,5.46
2023-02-13T06:22:34.625Z,5.47
2023-02-13T06:25:02.139Z,5.47
2023-02-13T06:27:29.443Z,5.45
2023-02-13T06:29:56.760Z,5.43
2023-02-13T06:32:24.154Z,5.42
2023-02-13T06:34:51.439Z,5.41
2023-02-13T06:37:18.804Z,5.42
2023-02-13T06:39:46.236Z,5.42
2023-02-13T06:42:13.515Z,5.41
2023-02-13T06:44:40.838Z,5.39
2023-02-13T06:47:08.072Z,5.38
2023-02-13T06:49:35.233Z,5.37
2023-02-13T06:52:02.666Z,5.38
2023-02-13T06:54:45.998Z,5.39
2023-02-13T06:57:14.756Z,5.39
2023-02-13T06:59:42.685Z,5.40
2023-02-13T07:02:13.640Z,5.39
2023-02-13T07:04:41.174Z,5.40
2023-02-13T07:07:08.373Z,5.40
2023-02-13T07:09:35.860Z,5.41
2023-02-13T07:12:04.611Z,5.43
2023-02-13T07:14:32.234Z,5.43
2023-02-13T07:16:59.654Z,5.43
2023-02-13T07:19:27.517Z,5.42
2023-02-13T07:21:55.019Z,5.41
2023-02-13T07:24:23.167Z,5.39
2023-02-13T07:26:50.435Z,5.40
2023-02-13T07:29:17.729Z,5.39
2023-02-13T07:31:45.182Z,5.39
2023-02-13T07:34:12.469Z,5.42
2023-02-13T07:36:39.679Z,5.43
2023-02-13T07:39:07.208Z,5.44
2023-02-13T07:41:41.198Z,5.45
2023-02-13T07:44:09.398Z,5.44
2023-02-13T07:46:37.417Z,5.46
2023-02-13T07:49:04.721Z,5.49
2023-02-13T07:51:32.031Z,5.51
2023-02-13T07:53:59.397Z,5.53
2023-02-13T07:56:26.643Z,5.55
2023-02-13T07:58:53.957Z,5.57
2023-02-13T08:01:21.235Z,5.59
2023-02-13T08:03:50.977Z,5.61
2023-02-13T08:06:20.170Z,5.62
2023-02-13T08:08:47.688Z,5.61
2023-02-13T08:11:49.954Z,5.61
2023-02-13T08:14:17.318Z,5.62
2023-02-13T08:16:44.613Z,5.62
2023-02-13T08:19:12.495Z,5.62
2023-02-13T08:21:40.691Z,5.64
2023-02-13T08:24:08.135Z,5.66
2023-02-13T08:26:36.085Z,5.69
2023-02-13T08:29:04.380Z,5.65
2023-02-13T08:31:31.873Z,5.67
2023-02-13T08:33:59.370Z,5.67
2023-02-13T08:36:26.729Z,5.65
2023-02-13T08:38:54.042Z,5.65
2023-02-13T08:41:22.308Z,5.66
2023-02-13T08:43:50.448Z,5.68
2023-02-13T08:46:18.101Z,5.68
2023-02-13T08:48:45.508Z,5.69
2023-02-13T08:51:14.925Z,5.70
2023-02-13T08:53:42.659Z,5.72
2023-02-13T08:56:11.448Z,5.74
2023-02-13T08:58:38.961Z,5.76
2023-02-13T09:01:08.100Z,5.79
2023-02-13T09:03:36.497Z,5.82
2023-02-13T09:06:04.101Z,5.86
2023-02-13T09:08:31.424Z,5.89
2023-02-13T09:11:01.397Z,5.89
2023-02-13T09:13:37.098Z,5.89
2023-02-13T09:16:06.660Z,5.89
2023-02-13T09:18:35.217Z,5.89
2023-02-13T09:21:05.392Z,5.91
2023-02-13T09:23:34.504Z,5.94
2023-02-13T09:26:04.074Z,5.97
2023-02-13T09:28:33.287Z,5.99
2023-02-13T09:31:04.629Z,6.02
2023-02-13T09:33:31.975Z,6.01
2023-02-13T09:35:59.772Z,6.04
2023-02-13T09:38:27.057Z,6.08
2023-02-13T09:41:00.729Z,6.09
2023-02-13T09:43:30.128Z,6.11
2023-02-13T09:46:12.766Z,6.11
2023-02-13T09:48:45.222Z,6.13
2023-02-13T09:51:18.352Z,6.18
2023-02-13T09:53:55.587Z,6.20
2023-02-13T09:56:35.028Z,6.23
2023-02-13T09:59:50.903Z,6.24
2023-02-13T10:02:42.572Z,6.24
2023-02-13T10:05:30.817Z,6.24
2023-02-13T10:08:04.136Z,6.27
2023-02-13T10:10:46.554Z,6.30
2023-02-13T10:13:29.932Z,6.33
2023-02-13T10:16:12.595Z,6.32
2023-02-13T10:19:03.213Z,6.31
2023-02-13T10:21:35.909Z,6.31
2023-02-13T10:24:22.164Z,6.31
2023-02-13T10:26:49.490Z,6.31
2023-02-13T10:29:50.632Z,6.36
2023-02-13T10:32:22.600Z,6.37
2023-02-13T10:34:53.578Z,6.39
2023-02-13T10:37:22.428Z,6.40
2023-02-13T10:39:53.353Z,6.42
2023-02-13T10:42:30.946Z,6.44
2023-02-13T10:45:09.297Z,6.47
2023-02-13T10:47:49.314Z,6.45
2023-02-13T10:50:40.870Z,6.45
2023-02-13T10:53:48.033Z,6.44
2023-02-13T10:56:23.296Z,6.44
2023-02-13T10:59:05.827Z,6.49
2023-02-13T11:01:48.268Z,6.51
2023-02-13T11:04:19.049Z,6.52
2023-02-13T11:07:02.250Z,6.54
2023-02-13T11:09:37.018Z,6.57
2023-02-13T11:12:24.269Z,6.57
2023-02-13T11:14:57.451Z,6.56
2023-02-13T11:17:26.881Z,6.55
2023-02-13T11:20:00.632Z,6.54
2023-02-13T11:22:33.486Z,6.57
2023-02-13T11:25:17.095Z,6.57
2023-02-13T11:27:46.266Z,6.54
2023-02-13T11:30:28.859Z,6.53
2023-02-13T11:33:06.657Z,6.50
2023-02-13T11:35:37.688Z,6.48
2023-02-13T11:38:18.243Z,6.49
2023-02-13T11:41:08.340Z,6.50
2023-02-13T11:43:49.509Z,6.53
2023-02-13T11:46:23.254Z,6.56
2023-02-13T11:49:05.834Z,6.58
2023-02-13T11:51:44.080Z,6.63
2023-02-13T11:54:37.370Z,6.68
2023-02-13T11:57:34.949Z,6.75
2023-02-13T12:00:30.247Z,6.80
2023-02-13T12:02:57.952Z,6.82
2023-02-13T12:05:27.982Z,6.83
2023-02-13T12:08:01.994Z,6.87
2023-02-13T12:10:33.249Z,6.91
2023-02-13T12:13:21.030Z,6.92
2023-02-13T12:15:56.407Z,6.88
2023-02-13T12:18:30.185Z,6.86
2023-02-13T12:21:15.771Z,6.88
2023-02-13T12:24:12.416Z,6.93
2023-02-13T12:26:53.493Z,6.93
2023-02-13T12:29:23.494Z,6.91
2023-02-13T12:31:55.422Z,6.91
2023-02-13T12:34:54.921Z,6.91
2023-02-13T12:37:38.703Z,6.90
2023-02-13T12:40:38.352Z,6.88
2023-02-13T12:43:33.850Z,6.86
2023-02-13T12:46:01.079Z,6.86
2023-02-13T12:48:34.253Z,6.86
2023-02-13T12:51:29.637Z,6.88
2023-02-13T12:54:15.095Z,6.92
2023-02-13T12:56:48.182Z,6.92
2023-02-13T12:59:30.146Z,6.95
2023-02-13T13:02:10.248Z,6.97
2023-02-13T13:05:05.162Z,7.01
2023-02-13T13:07:54.520Z,7.01
2023-02-13T13:10:28.761Z,7.06
2023-02-13T13:13:04.244Z,7.09
2023-02-13T13:16:25.036Z,7.15
2023-02-13T13:19:10.369Z,7.20
2023-02-13T13:22:02.428Z,7.26
2023-02-13T13:24:42.088Z,7.27
2023-02-13T13:27:36.633Z,7.27
2023-02-13T13:30:13.868Z,7.28
2023-02-13T13:32:43.168Z,7.28
2023-02-13T13:35:17.122Z,7.26
2023-02-13T13:38:02.655Z,7.27
2023-02-13T13:40:32.881Z,7.30
2023-02-13T13:43:20.825Z,7.34
2023-02-13T13:45:56.598Z,7.34
2023-02-13T13:48:59.424Z,7.35
2023-02-13T13:51:27.058Z,7.37
2023-02-13T13:54:00.411Z,7.38
2023-02-13T13:56:53.467Z,7.35
2023-02-13T13:59:37.625Z,7.32
2023-02-13T14:02:17.154Z,7.33
2023-02-13T14:05:17.216Z,7.33
2023-02-13T14:07:46.277Z,7.29
2023-02-13T14:10:25.503Z,7.27
2023-02-13T14:12:55.829Z,7.25
2023-02-13T14:15:38.330Z,7.27
2023-02-13T14:18:14.778Z,7.30
2023-02-13T14:20:44.342Z,7.33
2023-02-13T14:23:38.692Z,7.38
2023-02-13T14:26:18.102Z,7.40
2023-02-13T14:28:51.236Z,7.42
2023-02-13T14:31:29.711Z,7.44
2023-02-13T14:34:00.802Z,7.45
2023-02-13T14:36:40.823Z,7.48
2023-02-13T14:39:26.038Z,7.48
2023-02-13T14:41:55.788Z,7.49
2023-02-13T14:44:46.837Z,7.46
2023-02-13T14:47:28.620Z,7.42
2023-02-13T14:49:57.747Z,7.41
2023-02-13T14:52:46.287Z,7.40
2023-02-13T14:55:35.186Z,7.40
2023-02-13T14:58:22.148Z,7.40
2023-02-13T15:01:30.549Z,7.40
2023-02-13T15:04:05.765Z,7.41
2023-02-13T15:06:39.579Z,7.40
2023-02-13T15:09:37.953Z,7.40
2023-02-13T15:12:24.766Z,7.42
2023-02-13T15:14:52.059Z,7.43
2023-02-13T15:17:26.928Z,7.39
2023-02-13T15:19:58.972Z,7.39
2023-02-13T15:22:49.117Z,7.38
2023-02-13T15:25:43.119Z,7.39
2023-02-13T15:28:23.542Z,7.40
2023-02-13T15:31:01.463Z,7.44
2023-02-13T15:33:34.142Z,7.44
2023-02-13T15:36:04.877Z,7.45
2023-02-13T15:38:58.521Z,7.45
2023-02-13T15:41:33.566Z,7.45
2023-02-13T15:44:01.184Z,7.44
2023-02-13T15:46:35.961Z,7.41
2023-02-13T15:49:17.065Z,7.40
2023-02-13T15:51:45.410Z,7.39
2023-02-13T15:54:30.694Z,7.39
2023-02-13T15:57:01.149Z,7.37
2023-02-13T15:59:36.596Z,7.34
2023-02-13T16:02:09.514Z,7.31
2023-02-13T16:04:41.633Z,7.30
2023-02-13T16:07:14.656Z,7.26
2023-02-13T16:09:42.574Z,7.23
2023-02-13T16:12:28.072Z,7.21
2023-02-13T16:15:00.337Z,7.18
2023-02-13T16:17:37.505Z,7.16
2023-02-13T16:20:11.423Z,7.14
2023-02-13T16:22:50.204Z,7.13
2023-02-13T16:25:36.487Z,7.11
2023-02-13T16:28:10.143Z,7.09
2023-02-13T16:30:42.120Z,7.07
2023-02-13T16:33:16.393Z,7.04
2023-02-13T16:35:44.824Z,7.02
2023-02-13T16:38:50.604Z,6.99
2023-02-13T16:41:17.769Z,6.98
2023-02-13T16:43:49.624Z,6.97
2023-02-13T16:46:19.679Z,6.95
2023-02-13T16:48:59.444Z,6.92
2023-02-13T16:51:54.586Z,6.90
2023-02-13T16:54:38.280Z,6.87
2023-02-13T16:57:14.662Z,6.86
2023-02-13T16:59:47.942Z,6.83
2023-02-13T17:02:29.625Z,6.80
2023-02-13T17:05:09.091Z,6.78
2023-02-13T17:07:38.877Z,6.75
2023-02-13T17:10:08.798Z,6.73
2023-02-13T17:12:38.594Z,6.72
2023-02-13T17:15:12.303Z,6.70
2023-02-13T17:17:39.748Z,6.70
2023-02-13T17:20:08.667Z,6.70
2023-02-13T17:23:07.013Z,6.69
2023-02-13T17:25:36.666Z,6.69
2023-02-13T17:28:24.970Z,6.69
2023-02-13T17:30:57.429Z,6.68
2023-02-13T17:33:27.540Z,6.68
2023-02-13T17:35:55.587Z,6.67
2023-02-13T17:38:23.217Z,6.66
2023-02-13T17:40:50.668Z,6.66
2023-02-13T17:43:20.239Z,6.66
2023-02-13T17:45:49.903Z,6.66
2023-02-13T17:48:17.818Z,6.65
2023-02-13T17:50:45.765Z,6.63
2023-02-13T17:53:27.780Z,6.62
2023-02-13T17:55:55.267Z,6.58
2023-02-13T17:58:22.726Z,6.57
2023-02-13T18:00:50.426Z,6.56
2023-02-13T18:03:18.103Z,6.55
2023-02-13T18:05:48.686Z,6.54
2023-02-13T18:08:16.158Z,6.51
2023-02-13T18:10:43.450Z,6.48
2023-02-13T18:13:10.769Z,6.43
2023-02-13T18:15:44.555Z,6.40
2023-02-13T18:18:16.382Z,6.35
2023-02-13T18:20:43.914Z,6.29
2023-02-13T18:23:13.931Z,6.23
2023-02-13T18:25:41.312Z,6.18
2023-02-13T18:28:08.621Z,6.12
2023-02-13T18:30:36.048Z,6.06
2023-02-13T18:33:05.477Z,6.00
2023-02-13T18:35:36.224Z,5.93
2023-02-13T18:38:03.484Z,5.86
2023-02-13T18:40:30.616Z,5.79
2023-02-13T18:42:58.059Z,5.74
2023-02-13T18:45:25.358Z,5.67
2023-02-13T18:47:52.850Z,5.63
2023-02-13T18:50:20.461Z,5.56
2023-02-13T18:52:47.767Z,5.50
2023-02-13T18:55:15.120Z,5.42
2023-02-13T18:57:43.689Z,5.36
2023-02-13T19:00:14.191Z,5.30
2023-02-13T19:02:41.533Z,5.22
2023-02-13T19:05:09.055Z,5.17
2023-02-13T19:07:36.827Z,5.11
2023-02-13T19:10:04.551Z,5.05
2023-02-13T19:12:31.880Z,4.97
2023-02-13T19:14:59.089Z,4.92
2023-02-13T19:17:26.722Z,4.85
2023-02-13T19:19:55.691Z,4.80
2023-02-13T19:22:23.017Z,4.75
2023-02-13T19:24:50.284Z,4.71
2023-02-13T19:27:17.718Z,4.64
2023-02-13T19:29:45.054Z,4.59
2023-02-13T19:32:12.332Z,4.54
2023-02-13T19:34:39.855Z,4.48
2023-02-13T19:37:07.091Z,4.43
2023-02-13T19:39:37.322Z,4.40
2023-02-13T19:42:04.732Z,4.36
2023-02-13T19:44:32.036Z,4.32
2023-02-13T19:46:59.258Z,4.26
2023-02-13T19:49:26.711Z,4.22
2023-02-13T19:51:53.907Z,4.17
2023-02-13T19:54:21.229Z,4.15
2023-02-13T19:56:51.213Z,4.12
2023-02-13T19:59:18.469Z,4.08
2023-02-13T20:01:46.052Z,4.04
2023-02-13T20:04:13.467Z,4.02
2023-02-13T20:06:40.917Z,3.99
2023-02-13T20:09:12.138Z,3.97
2023-02-13T20:11:41.419Z,3.93
2023-02-13T20:14:15.165Z,3.88
2023-02-13T20:16:45.533Z,3.84
2023-02-13T20:19:14.128Z,3.79
2023-02-13T20:21:42.820Z,3.76
2023-02-13T20:24:12.374Z,3.70
2023-02-13T20:26:40.250Z,3.65
2023-02-13T20:29:08.942Z,3.62
2023-02-13T20:31:37.066Z,3.60
2023-02-13T20:34:08.862Z,3.57
2023-02-13T20:36:36.221Z,3.54
2023-02-13T20:39:06.473Z,3.53
2023-02-13T20:41:35.922Z,3.48
2023-02-13T20:44:07.183Z,3.46
2023-02-13T20:46:38.729Z,3.43
2023-02-13T20:49:07.501Z,3.41
2023-02-13T20:51:34.963Z,3.42
2023-02-13T20:54:02.463Z,3.41
2023-02-13T20:56:30.179Z,3.41
2023-02-13T20:58:59.733Z,3.41
2023-02-13T21:01:31.102Z,3.39
2023-02-13T21:03:59.280Z,3.40
2023-02-13T21:06:32.867Z,3.42
2023-02-13T21:09:01.209Z,3.42
2023-02-13T21:11:30.793Z,3.39
2023-02-13T21:13:58.640Z,3.35
2023-02-13T21:16:28.757Z,3.31
2023-02-13T21:18:58.984Z,3.28
2023-02-13T21:21:28.627Z,3.27
2023-02-13T21:23:57.972Z,3.23
2023-02-13T21:26:25.749Z,3.20
2023-02-13T21:28:53.974Z,3.19
2023-02-13T21:31:31.779Z,3.19
2023-02-13T21:34:00.935Z,3.15
2023-02-13T21:36:28.286Z,3.12
2023-02-13T21:38:55.878Z,3.09
2023-02-13T21:41:24.163Z,3.07
2023-02-13T21:43:51.748Z,3.05
2023-02-13T21:46:21.715Z,3.02
2023-02-13T21:48:53.876Z,3.02
2023-02-13T21:51:23.064Z,3.00
2023-02-13T21:53:51.288Z,2.98
2023-02-13T21:56:22.137Z,2.95
2023-02-13T21:58:49.765Z,2.92
2023-02-13T22:01:26.216Z,2.88
2023-02-13T22:04:00.939Z,2.85
2023-02-13T22:06:30.940Z,2.84
2023-02-13T22:09:00.591Z,2.84
2023-02-13T22:11:28.031Z,2.82
2023-02-13T22:13:56.797Z,2.79
2023-02-13T22:16:24.613Z,2.79
2023-02-13T22:18:51.929Z,2.81
2023-02-13T22:21:22.114Z,2.80
2023-02-13T22:23:50.105Z,2.77
2023-02-13T22:26:18.949Z,2.76
2023-02-13T22:28:46.712Z,2.71
2023-02-13T22:31:14.966Z,2.69
2023-02-13T22:33:47.510Z,2.67
2023-02-13T22:36:22.203Z,2.65
2023-02-13T22:38:51.158Z,2.65
2023-02-13T22:41:21.848Z,2.64
2023-02-13T22:43:49.321Z,2.63
2023-02-13T22:46:22.202Z,2.60
2023-02-13T22:48:53.015Z,2.59
2023-02-13T22:51:21.825Z,2.59
2023-02-13T22:53:49.193Z,2.57
2023-02-13T22:56:17.269Z,2.56
2023-02-13T22:58:44.543Z,2.54
2023-02-13T23:01:14.936Z,2.54
2023-02-13T23:03:42.352Z,2.53
2023-02-13T23:06:11.725Z,2.51
2023-02-13T23:08:39.584Z,2.48
2023-02-13T23:11:31.640Z,2.45
2023-02-13T23:13:59.200Z,2.45
2023-02-13T23:16:27.351Z,2.43
2023-02-13T23:18:56.438Z,2.42
2023-02-13T23:21:26.769Z,2.41
2023-02-13T23:23:54.002Z,2.41
2023-02-13T23:26:21.308Z,2.42
2023-02-13T23:28:48.605Z,2.41
2023-02-13T23:31:15.957Z,2.40
2023-02-13T23:33:43.469Z,2.41
2023-02-13T23:36:10.770Z,2.45
2023-02-13T23:38:38.072Z,2.51
2023-02-13T23:41:09.421Z,2.61
2023-02-13T23:43:36.920Z,2.69
2023-02-13T23:46:05.008Z,2.72
2023-02-13T23:48:33.826Z,2.75
2023-02-13T23:51:01.652Z,2.79
2023-02-13T23:53:29.510Z,2.85
2023-02-13T23:55:56.874Z,2.88
2023-02-13T23:58:24.078Z,2.87
